Time;durP1;ratioP1;P1;durP2;ratioP2;P2;SDS_P1;SDS_P2;PMS_P1;PMS_P2;Temp;Humidity;BMP_temperature;BMP_pressure;BME280_temperature;BME280_humidity;BME280_pressure;Samples;Min_cycle;Max_cycle;Signal;HPM_P1;HPM_P2
2024/02/08 00:01:41;;;;;;;5.60;2.60;;;6.60;99.90;;;;;;6213220;23;20012;-76
2024/02/08 00:04:07;;;;;;;5.80;2.77;;;6.60;99.90;;;;;;6212627;23;20001;-76
2024/02/08 00:06:33;;;;;;;5.27;2.43;;;6.60;99.90;;;;;;6213515;23;20008;-76
2024/02/08 00:09:02;;;;;;;3.90;2.30;;;6.60;99.90;;;;;;6213762;23;20024;-76
2024/02/08 00:11:28;;;;;;;5.73;2.50;;;6.60;99.90;;;;;;6212729;23;20470;-76
2024/02/08 00:13:54;;;;;;;4.33;2.27;;;6.70;99.90;;;;;;6213114;23;20072;-76
2024/02/08 00:16:20;;;;;;;4.07;2.00;;;6.60;99.90;;;;;;6212774;23;20467;-76
2024/02/08 00:18:45;;;;;;;3.23;2.30;;;6.60;99.90;;;;;;6213743;23;20009;-77
2024/02/08 00:21:13;;;;;;;3.40;2.30;;;6.60;99.90;;;;;;6213452;23;19997;-77
2024/02/08 00:23:38;;;;;;;6.03;2.43;;;6.70;99.90;;;;;;6213171;23;20050;-76
2024/02/08 00:26:04;;;;;;;3.13;1.90;;;6.70;99.90;;;;;;6213476;23;20079;-76
2024/02/08 00:28:30;;;;;;;4.03;1.93;;;6.70;99.90;;;;;;6213425;23;20001;-76
2024/02/08 00:30:55;;;;;;;2.87;1.80;;;6.80;99.90;;;;;;6213291;23;20017;-77
2024/02/08 00:33:24;;;;;;;2.70;1.60;;;6.80;99.90;;;;;;6213035;23;20059;-76
2024/02/08 00:35:49;;;;;;;3.23;1.70;;;6.80;99.90;;;;;;6213061;23;20009;-77
2024/02/08 00:38:15;;;;;;;4.27;1.73;;;6.90;99.90;;;;;;6212840;23;20106;-77
2024/02/08 00:40:41;;;;;;;2.57;1.60;;;6.90;99.90;;;;;;6213245;23;20093;-76
2024/02/08 00:43:06;;;;;;;3.23;1.90;;;6.90;99.90;;;;;;6213237;23;20005;-76
2024/02/08 00:45:35;;;;;;;2.77;1.63;;;6.90;99.90;;;;;;6212530;23;20004;-76
2024/02/08 00:48:02;;;;;;;4.33;1.90;;;7.00;99.90;;;;;;6213086;23;20005;-76
2024/02/08 00:50:27;;;;;;;3.43;1.83;;;7.00;99.90;;;;;;6212774;23;20100;-76
2024/02/08 00:52:53;;;;;;;4.63;1.80;;;7.00;99.90;;;;;;6212284;23;20036;-77
2024/02/08 00:55:19;;;;;;;3.03;1.63;;;7.10;99.90;;;;;;6212637;23;20012;-77
2024/02/08 00:57:45;;;;;;;2.37;1.40;;;7.20;99.90;;;;;;6213003;23;20005;-77
2024/02/08 01:00:11;;;;;;;2.13;1.40;;;7.20;99.90;;;;;;6213422;23;20386;-76
2024/02/08 01:02:39;;;;;;;3.80;1.40;;;7.20;99.90;;;;;;6213615;23;20381;-76
2024/02/08 01:05:05;;;;;;;2.77;1.53;;;7.30;99.90;;;;;;6212979;23;20422;-76
2024/02/08 01:07:34;;;;;;;2.73;1.57;;;7.30;99.90;;;;;;6213911;23;19997;-76
2024/02/08 01:10:00;;;;;;;3.83;1.67;;;7.30;99.90;;;;;;6213797;23;20063;-77
2024/02/08 01:12:26;;;;;;;2.53;1.43;;;7.30;99.90;;;;;;6213230;23;20011;-76
2024/02/08 01:14:51;;;;;;;2.87;1.50;;;7.30;99.90;;;;;;6213176;23;19996;-77
2024/02/08 01:17:17;;;;;;;3.00;1.53;;;7.30;99.90;;;;;;6214883;23;20012;-76
2024/02/08 01:19:43;;;;;;;2.20;1.03;;;7.30;99.90;;;;;;6215121;23;20005;-76
2024/02/08 01:22:08;;;;;;;2.53;1.40;;;7.40;99.90;;;;;;6215390;23;20005;-77
2024/02/08 01:24:34;;;;;;;1.87;1.10;;;7.50;99.90;;;;;;6213926;23;20511;-76
2024/02/08 01:27:00;;;;;;;3.33;1.20;;;7.50;99.90;;;;;;6214991;23;20122;-77
2024/02/08 01:29:26;;;;;;;1.73;1.23;;;7.40;99.90;;;;;;6214709;23;20094;-77
2024/02/08 01:31:53;;;;;;;2.53;1.00;;;7.50;99.90;;;;;;6214676;23;20000;-76
2024/02/08 01:34:19;;;;;;;2.43;1.10;;;7.50;99.90;;;;;;6214449;23;20007;-76
2024/02/08 01:36:46;;;;;;;1.60;1.10;;;7.50;99.90;;;;;;6214613;23;20021;-77
2024/02/08 01:39:13;;;;;;;1.10;0.90;;;7.60;99.90;;;;;;6214533;23;20008;-77
2024/02/08 01:41:43;;;;;;;1.53;1.00;;;7.60;99.90;;;;;;6214914;23;20003;-77
2024/02/08 01:44:09;;;;;;;1.00;0.80;;;7.60;99.90;;;;;;6213993;23;20123;-76
2024/02/08 01:46:38;;;;;;;1.43;1.13;;;7.60;99.90;;;;;;6214666;23;20020;-77
2024/02/08 01:49:27;;;;;;;1.20;1.00;;;7.60;99.90;;;;;;6214530;23;20442;-77
2024/02/08 01:52:03;;;;;;;2.33;1.00;;;7.70;99.90;;;;;;6214799;23;20012;-77
2024/02/08 01:54:31;;;;;;;1.80;1.03;;;7.70;99.90;;;;;;6214208;23;20001;-77
2024/02/08 01:56:58;;;;;;;1.20;0.90;;;7.70;99.90;;;;;;6214338;23;20439;-77
2024/02/08 01:59:24;;;;;;;1.17;1.00;;;7.70;99.90;;;;;;6214553;23;20493;-77
2024/02/08 02:01:56;;;;;;;1.80;0.80;;;7.70;99.90;;;;;;6214668;23;20009;-77
2024/02/08 02:04:22;;;;;;;1.40;0.90;;;7.80;99.90;;;;;;6214167;23;20323;-77
2024/02/08 02:06:47;;;;;;;1.03;0.77;;;7.80;99.90;;;;;;6214409;23;20312;-77
2024/02/08 02:09:33;;;;;;;2.57;0.97;;;7.80;99.90;;;;;;6214234;23;20127;-76
2024/02/08 02:12:10;;;;;;;1.92;1.00;;;7.80;99.90;;;;;;6214984;23;20000;-76
2024/02/08 02:14:38;;;;;;;1.43;0.90;;;7.80;99.90;;;;;;6214036;23;20000;-77
2024/02/08 02:17:19;;;;;;;0.70;0.70;;;7.80;99.90;;;;;;6214149;23;20015;-77
2024/02/08 02:19:46;;;;;;;1.27;0.80;;;7.90;99.90;;;;;;6214508;23;20004;-77
2024/02/08 02:22:13;;;;;;;1.40;0.80;;;7.80;99.90;;;;;;6214532;23;20005;-77
2024/02/08 02:24:40;;;;;;;1.00;0.90;;;7.90;99.90;;;;;;6214217;23;20348;-77
2024/02/08 02:27:11;;;;;;;1.33;1.00;;;8.00;99.90;;;;;;6214019;23;20053;-77
2024/02/08 02:29:40;;;;;;;1.37;1.00;;;8.00;99.90;;;;;;6214259;23;20000;-77
2024/02/08 02:32:12;;;;;;;0.70;0.70;;;8.00;99.90;;;;;;6214396;23;20072;-77
2024/02/08 02:34:42;;;;;;;1.43;0.90;;;8.10;99.90;;;;;;6213979;23;20004;-77
2024/02/08 02:37:08;;;;;;;0.80;0.80;;;8.10;99.90;;;;;;6214127;23;20019;-77
2024/02/08 02:39:33;;;;;;;1.17;0.90;;;8.10;99.90;;;;;;6214296;23;20009;-77
2024/02/08 02:41:59;;;;;;;1.10;1.00;;;8.10;99.90;;;;;;6214362;23;20084;-77
2024/02/08 02:44:27;;;;;;;1.77;1.00;;;8.10;99.90;;;;;;6214137;23;20083;-77
2024/02/08 02:46:54;;;;;;;0.83;0.70;;;8.10;99.90;;;;;;6213979;23;19996;-77
2024/02/08 02:49:21;;;;;;;0.90;0.80;;;8.10;99.90;;;;;;6214103;23;20035;-77
2024/02/08 02:51:48;;;;;;;1.63;0.80;;;8.00;99.90;;;;;;6214404;23;20066;-77
2024/02/08 02:54:17;;;;;;;1.00;0.80;;;8.00;99.90;;;;;;6212917;23;20007;-77
2024/02/08 02:56:50;;;;;;;1.10;0.80;;;8.10;99.90;;;;;;6214339;23;20000;-76
2024/02/08 02:59:16;;;;;;;1.07;0.80;;;8.20;99.90;;;;;;6214341;23;20032;-77
2024/02/08 03:01:49;;;;;;;1.53;0.70;;;8.20;99.90;;;;;;6214171;23;20017;-77
2024/02/08 03:04:18;;;;;;;2.53;0.80;;;8.20;99.90;;;;;;6213270;23;20024;-77
2024/02/08 03:06:45;;;;;;;0.73;0.73;;;8.20;99.90;;;;;;6214229;23;20099;-78
2024/02/08 03:09:23;;;;;;;1.60;1.10;;;8.10;99.90;;;;;;6213764;23;20088;-77
2024/02/08 03:11:49;;;;;;;0.80;0.80;;;8.10;99.90;;;;;;6214054;23;20005;-77
2024/02/08 03:14:22;;;;;;;1.00;0.80;;;8.10;99.90;;;;;;6213480;23;20011;-77
2024/02/08 03:16:48;;;;;;;0.93;0.80;;;8.10;99.90;;;;;;6213590;23;20155;-77
2024/02/08 03:19:15;;;;;;;1.00;0.87;;;8.20;99.90;;;;;;6213727;23;20036;-77
2024/02/08 03:21:41;;;;;;;0.93;0.80;;;8.20;99.90;;;;;;6213614;23;20372;-77
2024/02/08 03:24:08;;;;;;;0.97;0.70;;;8.10;99.90;;;;;;6213642;23;20028;-77
2024/02/08 03:26:49;;;;;;;1.10;0.80;;;8.10;99.90;;;;;;6214352;23;20308;-77
2024/02/08 03:29:16;;;;;;;1.00;0.73;;;8.10;99.90;;;;;;6213852;23;20052;-77
2024/02/08 03:31:46;;;;;;;0.70;0.70;;;8.10;99.90;;;;;;6213685;23;20372;-77
2024/02/08 03:34:16;;;;;;;0.80;0.73;;;8.20;99.90;;;;;;6213042;23;19997;-77
2024/02/08 03:36:44;;;;;;;1.30;0.70;;;8.20;99.90;;;;;;6213532;23;20001;-77
2024/02/08 03:39:13;;;;;;;2.27;0.83;;;8.20;99.90;;;;;;6213430;23;20343;-77
2024/02/08 03:41:40;;;;;;;0.70;0.70;;;8.10;99.90;;;;;;6214145;23;20010;-77
2024/02/08 03:44:06;;;;;;;1.50;0.87;;;8.20;99.90;;;;;;6212625;23;20423;-77
2024/02/08 03:46:32;;;;;;;1.80;0.80;;;8.20;99.90;;;;;;6213707;23;20050;-77
2024/02/08 03:48:57;;;;;;;0.97;0.70;;;8.30;99.90;;;;;;6213360;23;20004;-77
2024/02/08 03:51:23;;;;;;;1.17;0.90;;;8.30;99.90;;;;;;6214126;23;20334;-77
2024/02/08 03:53:48;;;;;;;2.27;0.90;;;8.30;99.90;;;;;;6212965;23;20622;-76
2024/02/08 03:56:15;;;;;;;1.13;0.83;;;8.40;99.90;;;;;;6213632;23;20427;-77
2024/02/08 03:58:41;;;;;;;1.47;0.90;;;8.30;99.90;;;;;;6213670;23;20005;-76
2024/02/08 04:01:08;;;;;;;2.83;1.00;;;8.30;99.90;;;;;;6213978;23;20107;-76
2024/02/08 04:06:37;;;;;;;0.70;0.70;;;8.20;99.90;;;;;;6213283;23;20075;-76
2024/02/08 04:09:16;;;;;;;1.40;0.97;;;8.20;99.90;;;;;;6213622;23;20012;-76
2024/02/08 04:55:45;;;;;;;1.53;0.60;;;8.30;99.90;;;;;;6214726;23;20019;-76
2024/02/08 04:58:11;;;;;;;1.70;0.70;;;8.30;99.90;;;;;;6215232;23;20082;-76
2024/02/08 05:00:37;;;;;;;0.60;0.60;;;8.40;99.90;;;;;;6215122;23;20004;-76
2024/02/08 05:03:04;;;;;;;0.93;0.57;;;8.40;99.90;;;;;;6214988;23;20009;-76
2024/02/08 05:05:29;;;;;;;0.50;0.50;;;8.40;99.90;;;;;;6214608;23;19996;-77
2024/02/08 05:07:55;;;;;;;1.70;0.50;;;8.40;99.90;;;;;;6215116;23;20055;-77
2024/02/08 05:10:20;;;;;;;1.33;0.60;;;8.50;99.90;;;;;;6215081;23;20591;-76
2024/02/08 05:12:47;;;;;;;0.60;0.60;;;8.50;99.90;;;;;;6214992;23;20012;-77
2024/02/08 05:15:13;;;;;;;0.50;0.50;;;8.50;99.90;;;;;;6214189;23;20001;-77
2024/02/08 05:17:40;;;;;;;0.63;0.60;;;8.50;99.90;;;;;;6214571;23;20095;-77
2024/02/08 05:20:11;;;;;;;1.23;0.60;;;8.50;99.90;;;;;;6214875;23;20005;-77
2024/02/08 05:22:38;;;;;;;1.43;0.97;;;8.50;99.90;;;;;;6215182;23;20334;-77
2024/02/08 05:25:10;;;;;;;1.07;0.70;;;8.50;99.90;;;;;;6214306;23;19997;-76
2024/02/08 05:27:36;;;;;;;0.67;0.63;;;8.40;99.90;;;;;;6214000;23;20489;-76
2024/02/08 05:30:02;;;;;;;1.97;0.93;;;8.40;99.90;;;;;;6215031;23;20009;-77
2024/02/08 05:32:27;;;;;;;0.77;0.70;;;8.30;99.90;;;;;;6214430;23;20449;-76
2024/02/08 05:34:53;;;;;;;0.60;0.60;;;8.40;99.90;;;;;;6213972;23;20037;-76
2024/02/08 05:37:25;;;;;;;0.70;0.60;;;8.30;99.90;;;;;;6214791;23;20378;-76
2024/02/08 05:39:51;;;;;;;0.60;0.60;;;8.20;99.90;;;;;;6214477;23;20075;-76
2024/02/08 05:42:17;;;;;;;0.70;0.70;;;8.10;99.90;;;;;;6214841;23;20007;-76
2024/02/08 05:44:45;;;;;;;0.80;0.80;;;8.00;99.90;;;;;;6213740;23;19997;-76
2024/02/08 05:47:15;;;;;;;0.67;0.60;;;7.90;99.90;;;;;;6213941;23;20004;-77
2024/02/08 05:49:48;;;;;;;0.87;0.60;;;7.90;99.90;;;;;;6213197;23;20009;-76
2024/02/08 05:52:15;;;;;;;0.63;0.63;;;7.90;99.90;;;;;;6214619;23;20000;-77
2024/02/08 05:54:45;;;;;;;1.23;0.60;;;7.90;99.90;;;;;;6213638;23;20087;-77
2024/02/08 05:57:12;;;;;;;0.57;0.50;;;7.90;99.90;;;;;;6214294;23;20000;-77
2024/02/08 05:59:38;;;;;;;0.70;0.70;;;7.90;99.90;;;;;;6214082;23;20107;-77
2024/02/08 06:02:13;;;;;;;1.53;0.70;;;7.90;99.90;;;;;;6213401;23;20023;-77
2024/02/08 06:04:49;;;;;;;1.27;0.60;;;7.90;99.90;;;;;;6213810;23;20031;-77
2024/02/08 06:07:17;;;;;;;0.70;0.70;;;7.90;99.90;;;;;;6214471;23;20008;-77
2024/02/08 06:12:28;;;;;;;0.83;0.60;;;8.00;99.90;;;;;;6214155;23;20005;-77
2024/02/08 06:15:00;;;;;;;0.67;0.60;;;8.00;99.90;;;;;;6213429;23;20483;-77
2024/02/08 06:17:37;;;;;;;0.77;0.50;;;8.00;99.90;;;;;;6210000;23;20096;-77
2024/02/08 06:20:08;;;;;;;0.93;0.57;;;8.00;99.90;;;;;;6214096;23;20015;-77
2024/02/08 06:22:39;;;;;;;0.80;0.67;;;8.00;99.90;;;;;;6213716;23;20004;-77
2024/02/08 06:25:31;;;;;;;1.33;0.70;;;8.00;99.90;;;;;;6213369;23;20005;-77
2024/02/08 06:27:57;;;;;;;0.57;0.50;;;8.00;99.90;;;;;;6213703;23;20319;-77
2024/02/08 06:30:25;;;;;;;1.20;0.60;;;8.10;99.90;;;;;;6213522;23;20012;-77
2024/02/08 06:33:25;;;;;;;0.60;0.60;;;8.10;99.90;;;;;;6213122;23;20425;-77
2024/02/08 06:35:56;;;;;;;1.07;0.80;;;8.10;99.90;;;;;;6213026;23;20383;-76
2024/02/08 06:38:40;;;;;;;1.00;0.80;;;8.10;99.90;;;;;;6213326;23;20458;-77
2024/02/08 06:41:09;;;;;;;2.27;0.80;;;8.10;99.90;;;;;;6213430;23;20564;-78
2024/02/08 06:43:57;;;;;;;3.00;1.73;;;8.10;99.90;;;;;;6213703;23;20070;-77
2024/02/08 06:46:47;;;;;;;1.27;0.80;;;8.10;99.90;;;;;;6213089;23;20323;-77
2024/02/08 07:41:12;;;;;;;0.73;0.50;;;9.10;99.90;;;;;;6212808;23;20064;-77
2024/02/08 07:43:43;;;;;;;0.50;0.50;;;9.10;99.90;;;;;;6213995;23;20008;-78
2024/02/08 07:46:16;;;;;;;0.73;0.50;;;9.20;99.90;;;;;;6214097;23;19996;-78
2024/02/08 07:48:44;;;;;;;0.50;0.50;;;9.30;99.90;;;;;;6214300;23;20071;-78
2024/02/08 07:51:15;;;;;;;0.77;0.50;;;9.30;99.90;;;;;;6214109;23;20312;-77
2024/02/08 07:53:54;;;;;;;1.67;0.70;;;9.30;99.90;;;;;;6214076;23;20016;-77
2024/02/08 07:56:46;;;;;;;0.57;0.50;;;9.40;99.90;;;;;;6214398;23;20004;-78
2024/02/08 07:59:15;;;;;;;0.57;0.53;;;9.40;99.90;;;;;;6214007;23;20000;-78
2024/02/08 08:01:49;;;;;;;0.47;0.47;;;9.50;99.90;;;;;;6214064;23;20554;-78
2024/02/08 08:04:41;;;;;;;0.60;0.50;;;9.50;99.90;;;;;;6213840;23;20016;-78
2024/02/08 08:07:02;;;;;;;1.00;0.50;;;9.50;99.90;;;;;;6213295;23;20012;-78
2024/02/08 08:09:27;;;;;;;0.60;0.50;;;9.60;99.90;;;;;;6214044;23;20012;-78
2024/02/08 08:11:53;;;;;;;0.70;0.60;;;9.60;99.90;;;;;;6214238;23;19996;-78
2024/02/08 08:17:16;;;;;;;0.60;0.50;;;9.60;99.90;;;;;;6213447;23;20071;-78
2024/02/08 08:19:44;;;;;;;1.73;0.60;;;9.60;99.90;;;;;;6214527;23;20080;-78
2024/02/08 08:25:11;;;;;;;1.20;0.60;;;9.70;99.90;;;;;;6219057;23;20005;-78
2024/02/08 08:30:38;;;;;;;0.70;0.50;;;9.80;99.90;;;;;;6122264;23;20073;-78
2024/02/08 08:41:00;;;;;;;0.43;0.43;;;10.10;99.90;;;;;;6213520;23;20091;-78
2024/02/08 08:43:26;;;;;;;0.50;0.50;;;10.10;99.90;;;;;;6214273;23;20009;-78
2024/02/08 08:46:05;;;;;;;0.50;0.50;;;10.10;99.90;;;;;;6213401;23;20469;-78
2024/02/08 08:48:31;;;;;;;1.10;0.70;;;10.30;99.90;;;;;;6214106;23;20009;-78
2024/02/08 08:50:58;;;;;;;0.53;0.53;;;10.30;99.90;;;;;;6214027;23;20009;-78
2024/02/08 08:53:28;;;;;;;0.50;0.50;;;10.30;99.90;;;;;;6213763;23;20005;-77
2024/02/08 08:55:55;;;;;;;0.40;0.40;;;10.30;99.90;;;;;;6213755;23;20051;-78
2024/02/08 08:58:27;;;;;;;0.43;0.43;;;10.40;99.90;;;;;;6214992;23;20024;-78
2024/02/08 09:03:40;;;;;;;0.50;0.50;;;10.50;99.90;;;;;;6213309;23;20055;-78
2024/02/08 09:06:12;;;;;;;0.40;0.40;;;10.70;99.90;;;;;;6213570;23;20423;-78
2024/02/08 09:08:54;;;;;;;0.63;0.53;;;10.70;99.90;;;;;;6214143;23;20028;-78
2024/02/08 09:11:24;;;;;;;1.17;0.60;;;10.90;99.90;;;;;;6213152;23;20024;-78
2024/02/08 09:13:53;;;;;;;0.60;0.60;;;10.90;99.90;;;;;;6213129;23;20127;-78
2024/02/08 09:21:31;;;;;;;0.50;0.50;;;11.00;99.90;;;;;;6223950;23;20036;-77
2024/02/08 09:24:05;;;;;;;0.50;0.50;;;11.10;99.90;;;;;;6213615;23;20071;-78
2024/02/08 09:26:52;;;;;;;0.50;0.50;;;11.20;99.90;;;;;;6213063;23;20605;-78
2024/02/08 09:29:24;;;;;;;0.87;0.53;;;11.40;99.90;;;;;;6213631;23;20355;-78
2024/02/08 09:31:50;;;;;;;1.37;0.70;;;11.70;99.90;;;;;;6213596;23;20048;-78
2024/02/08 09:34:16;;;;;;;1.40;0.80;;;11.90;99.90;;;;;;6213902;23;20005;-78
2024/02/08 09:36:43;;;;;;;1.17;0.43;;;12.30;99.90;;;;;;6213909;23;20062;-78
2024/02/08 09:39:15;;;;;;;2.17;0.60;;;12.40;99.90;;;;;;6215001;23;20608;-77
2024/02/08 09:41:45;;;;;;;0.47;0.40;;;12.60;99.90;;;;;;6215971;23;20371;-78
2024/02/08 09:44:12;;;;;;;0.70;0.50;;;12.50;99.90;;;;;;6215503;23;20000;-78
2024/02/08 09:49:21;;;;;;;1.47;0.60;;;12.40;99.90;;;;;;6216083;23;20004;-78
2024/02/08 09:51:52;;;;;;;0.60;0.60;;;12.30;99.90;;;;;;6216389;23;20000;-77
2024/02/08 09:54:27;;;;;;;2.70;0.60;;;12.30;99.90;;;;;;6216094;23;20116;-78
2024/02/08 09:57:23;;;;;;;4.13;0.77;;;12.20;99.90;;;;;;6215290;23;20064;-79
2024/02/08 09:59:59;;;;;;;0.50;0.50;;;12.30;99.90;;;;;;6216268;23;20004;-79
2024/02/08 10:02:32;;;;;;;0.40;0.40;;;12.50;99.90;;;;;;6213417;23;20490;-71
2024/02/08 10:04:58;;;;;;;0.53;0.50;;;12.50;99.90;;;;;;6214763;23;19997;-78
2024/02/08 10:07:37;;;;;;;0.50;0.50;;;12.60;99.90;;;;;;6217374;23;19992;-79
2024/02/08 10:10:20;;;;;;;0.60;0.50;;;12.70;99.90;;;;;;6218681;23;20008;-79
2024/02/08 10:13:05;;;;;;;0.70;0.50;;;12.70;99.90;;;;;;6218556;23;20007;-78
2024/02/08 10:15:39;;;;;;;0.75;0.52;;;12.70;99.90;;;;;;6217064;23;20080;-79
2024/02/08 10:18:10;;;;;;;0.40;0.40;;;12.80;99.90;;;;;;6217536;23;19997;-79
2024/02/08 10:20:45;;;;;;;0.40;0.40;;;12.80;99.90;;;;;;6216638;23;20004;-79
2024/02/08 10:23:33;;;;;;;0.45;0.45;;;12.90;99.90;;;;;;6218329;23;19997;-79
2024/02/08 10:28:53;;;;;;;0.45;0.45;;;12.80;99.90;;;;;;6217346;23;20016;-81
2024/02/08 10:31:24;;;;;;;0.50;0.50;;;12.80;99.90;;;;;;6218117;23;20023;-81
2024/02/08 10:33:57;;;;;;;0.60;0.50;;;12.80;99.90;;;;;;6218309;23;20027;-81
2024/02/08 10:36:31;;;;;;;0.43;0.43;;;12.80;99.90;;;;;;6217445;23;20028;-78
2024/02/08 10:39:07;;;;;;;0.70;0.57;;;12.70;99.90;;;;;;6217159;23;20004;-79
2024/02/08 10:41:40;;;;;;;0.60;0.60;;;12.80;99.90;;;;;;6214788;23;20062;-78
2024/02/08 10:44:17;;;;;;;0.67;0.50;;;12.70;99.90;;;;;;6216655;23;20498;-79
2024/02/08 10:46:46;;;;;;;0.40;0.40;;;12.60;99.90;;;;;;6216902;23;20017;-78
2024/02/08 10:49:12;;;;;;;0.40;0.40;;;12.70;99.90;;;;;;6215671;23;20396;-79
2024/02/08 10:51:43;;;;;;;0.37;0.37;;;12.60;99.90;;;;;;6214557;23;20047;-79
2024/02/08 10:54:14;;;;;;;2.28;0.55;;;12.50;99.90;;;;;;6215541;23;20055;-78
2024/02/08 10:56:45;;;;;;;0.70;0.38;;;12.50;99.90;;;;;;6217092;23;20435;-78
2024/02/08 10:59:14;;;;;;;0.40;0.40;;;12.50;99.90;;;;;;6217133;23;20011;-78
2024/02/08 11:04:18;;;;;;;0.40;0.40;;;12.60;99.90;;;;;;6217027;23;20000;-79
2024/02/08 11:06:54;;;;;;;0.40;0.40;;;12.70;99.90;;;;;;6217233;23;20348;-78
2024/02/08 11:09:21;;;;;;;0.50;0.40;;;12.90;99.90;;;;;;6217637;23;20031;-79
2024/02/08 11:12:10;;;;;;;0.50;0.50;;;13.20;99.90;;;;;;6217624;23;20370;-79
2024/02/08 11:14:42;;;;;;;0.40;0.40;;;13.20;99.90;;;;;;6216086;23;20043;-76
2024/02/08 11:17:22;;;;;;;1.05;0.32;;;13.30;99.90;;;;;;6211172;23;20062;-73
2024/02/08 11:19:58;;;;;;;0.30;0.30;;;13.30;99.90;;;;;;6213305;23;20012;-76
2024/02/08 11:22:34;;;;;;;0.85;0.50;;;13.40;99.90;;;;;;6213002;23;20008;-77
2024/02/08 11:25:19;;;;;;;0.82;0.63;;;13.50;99.90;;;;;;6212607;23;19997;-77
2024/02/08 11:27:52;;;;;;;4.50;0.80;;;13.50;99.90;;;;;;6213405;23;20030;-76
2024/02/08 11:30:32;;;;;;;0.50;0.50;;;13.40;99.90;;;;;;6212635;23;20013;-78
2024/02/08 11:33:02;;;;;;;1.85;0.70;;;13.40;99.90;;;;;;6213381;23;20003;-76
2024/02/08 11:35:35;;;;;;;0.50;0.50;;;13.20;99.90;;;;;;6212636;23;20030;-77
2024/02/08 11:38:17;;;;;;;0.70;0.50;;;13.20;99.90;;;;;;6212933;23;20000;-77
2024/02/08 11:40:46;;;;;;;1.63;0.40;;;13.30;99.90;;;;;;6212224;23;20665;-76
2024/02/08 11:43:25;;;;;;;0.57;0.40;;;13.20;99.90;;;;;;6212882;23;20001;-76
2024/02/08 11:45:54;;;;;;;0.43;0.43;;;13.10;99.90;;;;;;6212236;23;20001;-76
2024/02/08 11:48:28;;;;;;;0.40;0.40;;;13.10;99.90;;;;;;6213025;23;20064;-76
2024/02/08 11:51:00;;;;;;;0.93;0.50;;;13.00;99.90;;;;;;6212123;23;20427;-76
2024/02/08 11:53:31;;;;;;;1.92;0.43;;;12.90;99.90;;;;;;6210731;23;20308;-76
2024/02/08 11:56:07;;;;;;;1.02;0.57;;;12.80;99.90;;;;;;6211539;23;20001;-76
2024/02/08 11:58:41;;;;;;;0.40;0.40;;;12.80;99.90;;;;;;6211273;23;20076;-74
2024/02/08 12:01:13;;;;;;;0.63;0.40;;;12.90;99.90;;;;;;6212696;23;20078;-77
2024/02/08 12:03:42;;;;;;;0.47;0.47;;;13.00;99.90;;;;;;6212079;23;20011;-76
2024/02/08 12:06:29;;;;;;;1.40;0.43;;;13.00;99.90;;;;;;6212346;23;20004;-77
2024/02/08 12:08:58;;;;;;;0.40;0.40;;;12.90;99.90;;;;;;6212164;23;20005;-77
2024/02/08 12:11:30;;;;;;;0.40;0.40;;;13.00;99.90;;;;;;6212571;23;20009;-76
2024/02/08 12:14:07;;;;;;;0.50;0.50;;;13.00;99.90;;;;;;6212919;23;20370;-77
2024/02/08 12:16:46;;;;;;;0.40;0.40;;;13.00;99.90;;;;;;6212329;23;20099;-76
2024/02/08 12:19:18;;;;;;;0.43;0.40;;;13.00;99.90;;;;;;6211697;23;20001;-76
2024/02/08 12:21:52;;;;;;;0.40;0.40;;;12.90;99.90;;;;;;6212052;23;20001;-76
2024/02/08 12:24:17;;;;;;;0.73;0.45;;;13.00;99.90;;;;;;6211286;23;20088;-76
2024/02/08 12:26:44;;;;;;;0.90;0.50;;;13.10;99.90;;;;;;6212032;23;20008;-77
2024/02/08 12:29:18;;;;;;;0.40;0.40;;;13.00;99.90;;;;;;6211649;23;20004;-76
2024/02/08 12:31:47;;;;;;;3.70;1.00;;;13.00;99.90;;;;;;6211900;23;20008;-77
2024/02/08 12:34:16;;;;;;;0.40;0.40;;;13.00;99.90;;;;;;6211690;23;20050;-77
2024/02/08 12:36:45;;;;;;;0.93;0.63;;;13.00;99.90;;;;;;6213003;23;20051;-80
2024/02/08 12:39:20;;;;;;;0.80;0.60;;;12.90;99.90;;;;;;6213873;23;20473;-76
2024/02/08 12:41:46;;;;;;;;;;;12.90;99.90;;;;;;6212614;23;20007;-74
2024/02/08 12:44:14;;;;;;;0.40;0.40;;;12.90;99.90;;;;;;6211765;23;19978;-76
2024/02/08 12:46:42;;;;;;;0.85;0.60;;;12.90;99.90;;;;;;6212623;23;20024;-75
2024/02/08 12:49:08;;;;;;;0.50;0.50;;;12.90;99.90;;;;;;6212415;23;20008;-75
2024/02/08 12:51:36;;;;;;;0.63;0.43;;;12.80;99.90;;;;;;6210893;23;20009;-75
2024/02/08 12:54:07;;;;;;;1.33;0.47;;;12.70;99.90;;;;;;6211001;23;20001;-76
2024/02/08 12:56:35;;;;;;;2.38;0.50;;;12.70;99.90;;;;;;6212677;23;20095;-76
2024/02/08 12:59:02;;;;;;;0.40;0.40;;;12.70;99.90;;;;;;6212032;23;20011;-76
2024/02/08 13:01:44;;;;;;;2.20;0.70;;;12.80;99.90;;;;;;6211919;23;20001;-76
2024/02/08 13:04:16;;;;;;;0.73;0.60;;;12.90;99.90;;;;;;6211656;23;20012;-76
2024/02/08 13:06:41;;;;;;;0.85;0.40;;;12.90;99.90;;;;;;6211889;23;20004;-76
2024/02/08 13:09:25;;;;;;;0.68;0.43;;;12.90;99.90;;;;;;6212304;23;20012;-77
2024/02/08 13:12:14;;;;;;;0.57;0.57;;;12.90;99.90;;;;;;6214038;23;20005;-75
2024/02/08 13:14:56;;;;;;;0.30;0.30;;;12.80;99.90;;;;;;6213563;23;20009;-75
2024/02/08 13:17:25;;;;;;;1.55;0.82;;;12.70;99.90;;;;;;6213982;23;20012;-76
2024/02/08 13:19:55;;;;;;;0.40;0.40;;;12.70;99.90;;;;;;6214297;23;20000;-76
2024/02/08 13:22:24;;;;;;;0.80;0.57;;;12.70;99.90;;;;;;6187312;23;20004;-75
2024/02/08 13:24:53;;;;;;;0.43;0.43;;;12.60;99.90;;;;;;6213502;23;20446;-75
2024/02/08 13:27:24;;;;;;;0.50;0.50;;;12.40;99.90;;;;;;6214368;23;20055;-76
2024/02/08 13:29:53;;;;;;;0.45;0.40;;;12.40;99.90;;;;;;6215096;23;20009;-76
2024/02/08 13:32:24;;;;;;;1.40;0.40;;;12.40;99.90;;;;;;6214043;23;20358;-75
2024/02/08 13:34:53;;;;;;;0.40;0.40;;;12.40;99.90;;;;;;6213268;23;20585;-75
2024/02/08 13:37:21;;;;;;;0.50;0.50;;;12.50;99.90;;;;;;6214361;23;20323;-76
2024/02/08 13:39:48;;;;;;;0.50;0.50;;;12.60;99.90;;;;;;6214111;23;20005;-76
2024/02/08 13:42:15;;;;;;;1.15;0.70;;;12.50;99.90;;;;;;6214068;23;20001;-76
2024/02/08 13:44:44;;;;;;;1.08;0.50;;;12.50;99.90;;;;;;6213921;23;20005;-76
2024/02/08 13:47:11;;;;;;;1.77;0.82;;;12.40;99.90;;;;;;6213476;23;20423;-76
2024/02/08 13:49:37;;;;;;;2.60;0.90;;;12.40;99.90;;;;;;6213749;23;20443;-75
2024/02/08 13:52:03;;;;;;;2.47;0.60;;;12.40;99.90;;;;;;6213310;23;20739;-75
2024/02/08 13:54:31;;;;;;;2.88;0.70;;;12.40;99.90;;;;;;6213620;23;20004;-75
2024/02/08 13:56:57;;;;;;;3.15;0.85;;;12.50;99.90;;;;;;6213696;23;20339;-75
2024/02/08 13:59:23;;;;;;;0.55;0.50;;;12.40;99.90;;;;;;6214686;23;20009;-77
2024/02/08 14:01:48;;;;;;;1.92;0.75;;;12.40;99.90;;;;;;6218017;23;20011;-79
2024/02/08 14:04:20;;;;;;;18.00;1.97;;;12.40;99.90;;;;;;6212829;23;20005;-77
2024/02/08 14:06:55;;;;;;;2.70;1.23;;;12.40;99.90;;;;;;6215340;23;20015;-78
2024/02/08 14:09:25;;;;;;;3.92;0.90;;;12.30;99.90;;;;;;6217824;23;20004;-74
2024/02/08 14:11:58;;;;;;;3.20;1.13;;;12.30;99.90;;;;;;6214343;23;20028;-74
2024/02/08 14:14:40;;;;;;;1.80;0.70;;;12.20;99.90;;;;;;6216419;23;20073;-79
2024/02/08 14:17:10;;;;;;;2.90;0.80;;;12.20;99.90;;;;;;6218657;23;20405;-79
2024/02/08 14:19:42;;;;;;;6.43;1.10;;;12.20;99.90;;;;;;6218820;23;20013;-83
2024/02/08 14:22:08;;;;;;;2.27;1.10;;;12.20;99.90;;;;;;6214161;23;20008;-77
2024/02/08 14:24:39;;;;;;;8.97;1.20;;;12.10;99.90;;;;;;6212283;23;20393;-77
2024/02/08 14:27:10;;;;;;;6.80;1.38;;;12.10;99.90;;;;;;6213717;23;20035;-77
2024/02/08 14:29:36;;;;;;;4.75;1.05;;;12.10;99.90;;;;;;6213789;23;20024;-77
2024/02/08 14:32:04;;;;;;;6.20;1.50;;;12.10;99.90;;;;;;6213526;23;20083;-77
2024/02/08 14:34:35;;;;;;;5.25;1.60;;;12.20;99.90;;;;;;6213481;23;20028;-78
2024/02/08 14:37:05;;;;;;;8.73;2.00;;;12.20;99.90;;;;;;6213258;23;20020;-77
2024/02/08 14:39:33;;;;;;;7.80;1.73;;;12.10;99.90;;;;;;6213129;23;20312;-77
2024/02/08 14:42:11;;;;;;;13.43;2.45;;;12.20;99.90;;;;;;6213144;23;20373;-77
2024/02/08 14:44:54;;;;;;;9.90;2.37;;;12.10;99.90;;;;;;6213010;23;20051;-78
2024/02/08 14:47:25;;;;;;;11.57;2.90;;;12.20;99.90;;;;;;6213713;23;20024;-77
2024/02/08 14:49:59;;;;;;;12.33;2.83;;;12.10;99.90;;;;;;6213476;23;20013;-77
2024/02/08 14:52:28;;;;;;;9.38;2.50;;;12.10;99.90;;;;;;6213264;23;20016;-77
2024/02/08 14:55:10;;;;;;;10.00;1.97;;;12.10;99.90;;;;;;6213062;23;20008;-79
2024/02/08 14:57:42;;;;;;;9.07;2.00;;;12.00;99.90;;;;;;6214046;23;20005;-77
2024/02/08 15:02:55;;;;;;;13.18;2.72;;;11.80;99.90;;;;;;6213183;23;20496;-78
2024/02/08 15:05:40;;;;;;;14.37;2.57;;;11.70;99.90;;;;;;6212873;23;20031;-77
2024/02/08 15:08:54;;;;;;;10.90;2.30;;;11.70;99.90;;;;;;6212435;23;20004;-78
2024/02/08 15:11:25;;;;;;;12.33;2.20;;;11.70;99.90;;;;;;6201358;23;20015;-77
2024/02/08 15:13:54;;;;;;;9.83;2.90;;;11.60;99.90;;;;;;6213209;23;20082;-77
2024/02/08 15:16:30;;;;;;;12.33;2.77;;;11.60;99.90;;;;;;6212678;23;20012;-77
2024/02/08 15:18:56;;;;;;;17.40;3.30;;;11.70;99.90;;;;;;6212693;23;20019;-77
2024/02/08 15:21:25;;;;;;;15.63;3.20;;;11.70;99.90;;;;;;6213720;23;20032;-77
2024/02/08 15:26:37;;;;;;;15.43;2.97;;;11.70;99.90;;;;;;6223893;23;20004;-77
2024/02/08 15:29:08;;;;;;;18.90;3.17;;;11.70;99.90;;;;;;6213466;23;20004;-77
2024/02/08 15:31:56;;;;;;;12.90;2.77;;;11.60;99.90;;;;;;6212850;23;20012;-78